sensor_id;sensor_type;location;lat;lon;timestamp;P1;durP1;ratioP1;P2;durP2;ratioP2
22679;SDS011;11507;44.858;10.374;2022-12-11T00:03:51;68.90;;;34.35;;
22679;SDS011;11507;44.858;10.374;2022-12-11T00:06:18;67.40;;;34.58;;
22679;SDS011;11507;44.858;10.374;2022-12-11T00:08:45;66.78;;;33.55;;
22679;SDS011;11507;44.858;10.374;2022-12-11T00:11:12;71.13;;;34.83;;
22679;SDS011;11507;44.858;10.374;2022-12-11T00:13:40;74.32;;;33.90;;
22679;SDS011;11507;44.858;10.374;2022-12-11T00:16:07;67.78;;;33.17;;
22679;SDS011;11507;44.858;10.374;2022-12-11T00:18:34;75.10;;;34.35;;
22679;SDS011;11507;44.858;10.374;2022-12-11T00:21:00;65.68;;;31.73;;
22679;SDS011;11507;44.858;10.374;2022-12-11T00:23:27;64.00;;;31.13;;
22679;SDS011;11507;44.858;10.374;2022-12-11T00:25:53;69.32;;;32.53;;
22679;SDS011;11507;44.858;10.374;2022-12-11T00:28:21;70.38;;;32.38;;
22679;SDS011;11507;44.858;10.374;2022-12-11T00:30:47;65.40;;;30.98;;
22679;SDS011;11507;44.858;10.374;2022-12-11T00:33:13;67.13;;;30.40;;
22679;SDS011;11507;44.858;10.374;2022-12-11T00:35:42;73.10;;;32.10;;
22679;SDS011;11507;44.858;10.374;2022-12-11T00:38:13;72.38;;;32.40;;
22679;SDS011;11507;44.858;10.374;2022-12-11T00:40:42;64.68;;;30.73;;
22679;SDS011;11507;44.858;10.374;2022-12-11T00:43:08;70.88;;;31.77;;
22679;SDS011;11507;44.858;10.374;2022-12-11T00:45:35;85.80;;;37.72;;
22679;SDS011;11507;44.858;10.374;2022-12-11T00:48:02;70.28;;;32.33;;
22679;SDS011;11507;44.858;10.374;2022-12-11T00:52:53;73.15;;;33.22;;
22679;SDS011;11507;44.858;10.374;2022-12-11T00:57:45;69.85;;;32.15;;
22679;SDS011;11507;44.858;10.374;2022-12-11T01:02:37;64.55;;;30.73;;
22679;SDS011;11507;44.858;10.374;2022-12-11T01:05:04;101.22;;;34.38;;
22679;SDS011;11507;44.858;10.374;2022-12-11T01:07:30;164.60;;;33.40;;
22679;SDS011;11507;44.858;10.374;2022-12-11T01:12:42;307.83;;;38.85;;
22679;SDS011;11507;44.858;10.374;2022-12-11T01:17:33;443.80;;;42.22;;
22679;SDS011;11507;44.858;10.374;2022-12-11T01:22:26;248.07;;;37.80;;
22679;SDS011;11507;44.858;10.374;2022-12-11T01:27:17;522.88;;;46.90;;
22679;SDS011;11507;44.858;10.374;2022-12-11T01:32:09;103.05;;;34.90;;
22679;SDS011;11507;44.858;10.374;2022-12-11T01:37:00;566.90;;;43.35;;
22679;SDS011;11507;44.858;10.374;2022-12-11T01:41:59;119.78;;;31.17;;
22679;SDS011;11507;44.858;10.374;2022-12-11T01:49:21;284.63;;;35.05;;
22679;SDS011;11507;44.858;10.374;2022-12-11T01:52:13;321.45;;;35.33;;
22679;SDS011;11507;44.858;10.374;2022-12-11T01:54:42;459.00;;;40.38;;
22679;SDS011;11507;44.858;10.374;2022-12-11T01:57:09;483.67;;;40.38;;
22679;SDS011;11507;44.858;10.374;2022-12-11T01:59:38;256.50;;;31.50;;
22679;SDS011;11507;44.858;10.374;2022-12-11T02:02:07;179.15;;;31.48;;
22679;SDS011;11507;44.858;10.374;2022-12-11T02:05:01;141.20;;;29.20;;
22679;SDS011;11507;44.858;10.374;2022-12-11T02:07:28;287.40;;;30.35;;
22679;SDS011;11507;44.858;10.374;2022-12-11T02:10:04;168.50;;;28.02;;
22679;SDS011;11507;44.858;10.374;2022-12-11T02:12:33;94.63;;;29.30;;
22679;SDS011;11507;44.858;10.374;2022-12-11T02:15:05;335.73;;;35.65;;
22679;SDS011;11507;44.858;10.374;2022-12-11T02:17:49;194.75;;;32.50;;
22679;SDS011;11507;44.858;10.374;2022-12-11T02:28:54;138.23;;;29.63;;
22679;SDS011;11507;44.858;10.374;2022-12-11T02:36:48;122.63;;;29.80;;
22679;SDS011;11507;44.858;10.374;2022-12-11T02:39:21;217.98;;;32.28;;
22679;SDS011;11507;44.858;10.374;2022-12-11T02:41:49;145.02;;;31.02;;
22679;SDS011;11507;44.858;10.374;2022-12-11T02:44:18;180.23;;;31.35;;
22679;SDS011;11507;44.858;10.374;2022-12-11T02:46:47;133.40;;;29.08;;
22679;SDS011;11507;44.858;10.374;2022-12-11T02:49:14;415.20;;;39.20;;
22679;SDS011;11507;44.858;10.374;2022-12-11T02:51:43;124.20;;;31.38;;
22679;SDS011;11507;44.858;10.374;2022-12-11T02:54:16;158.82;;;31.67;;
22679;SDS011;11507;44.858;10.374;2022-12-11T02:56:47;139.93;;;31.30;;
22679;SDS011;11507;44.858;10.374;2022-12-11T02:59:19;216.70;;;34.88;;
22679;SDS011;11507;44.858;10.374;2022-12-11T03:01:51;174.25;;;34.85;;
22679;SDS011;11507;44.858;10.374;2022-12-11T03:04:18;130.70;;;30.67;;
22679;SDS011;11507;44.858;10.374;2022-12-11T03:06:50;129.75;;;32.42;;
22679;SDS011;11507;44.858;10.374;2022-12-11T03:09:21;139.07;;;33.13;;
22679;SDS011;11507;44.858;10.374;2022-12-11T03:14:12;172.05;;;32.80;;
22679;SDS011;11507;44.858;10.374;2022-12-11T03:19:36;220.15;;;33.67;;
22679;SDS011;11507;44.858;10.374;2022-12-11T03:22:09;234.68;;;36.05;;
22679;SDS011;11507;44.858;10.374;2022-12-11T03:24:50;188.13;;;32.03;;
22679;SDS011;11507;44.858;10.374;2022-12-11T03:29:54;67.03;;;27.35;;
22679;SDS011;11507;44.858;10.374;2022-12-11T03:32:21;182.90;;;28.40;;
22679;SDS011;11507;44.858;10.374;2022-12-11T03:35:08;400.23;;;36.90;;
22679;SDS011;11507;44.858;10.374;2022-12-11T03:37:59;167.00;;;30.65;;
22679;SDS011;11507;44.858;10.374;2022-12-11T03:40:29;241.23;;;34.05;;
22679;SDS011;11507;44.858;10.374;2022-12-11T03:43:01;177.95;;;33.15;;
22679;SDS011;11507;44.858;10.374;2022-12-11T03:45:29;330.48;;;37.38;;
22679;SDS011;11507;44.858;10.374;2022-12-11T03:47:57;220.68;;;32.13;;
22679;SDS011;11507;44.858;10.374;2022-12-11T03:50:26;229.68;;;32.05;;
22679;SDS011;11507;44.858;10.374;2022-12-11T03:52:55;150.95;;;30.92;;
22679;SDS011;11507;44.858;10.374;2022-12-11T03:55:23;186.38;;;31.08;;
22679;SDS011;11507;44.858;10.374;2022-12-11T03:57:50;263.67;;;32.85;;
22679;SDS011;11507;44.858;10.374;2022-12-11T04:02:44;314.92;;;35.55;;
22679;SDS011;11507;44.858;10.374;2022-12-11T04:05:30;79.60;;;27.92;;
22679;SDS011;11507;44.858;10.374;2022-12-11T04:10:23;127.53;;;33.60;;
22679;SDS011;11507;44.858;10.374;2022-12-11T04:12:48;81.53;;;31.10;;
22679;SDS011;11507;44.858;10.374;2022-12-11T04:17:40;102.03;;;26.33;;
22679;SDS011;11507;44.858;10.374;2022-12-11T04:20:25;157.93;;;27.73;;
22679;SDS011;11507;44.858;10.374;2022-12-11T04:23:13;221.00;;;31.77;;
22679;SDS011;11507;44.858;10.374;2022-12-11T04:26:03;171.85;;;29.58;;
22679;SDS011;11507;44.858;10.374;2022-12-11T04:28:33;230.30;;;31.65;;
22679;SDS011;11507;44.858;10.374;2022-12-11T04:31:00;159.85;;;27.70;;
22679;SDS011;11507;44.858;10.374;2022-12-11T04:33:28;211.38;;;30.75;;
22679;SDS011;11507;44.858;10.374;2022-12-11T04:38:23;249.00;;;29.17;;
22679;SDS011;11507;44.858;10.374;2022-12-11T04:40:56;118.68;;;27.42;;
22679;SDS011;11507;44.858;10.374;2022-12-11T04:43:28;116.18;;;26.30;;
22679;SDS011;11507;44.858;10.374;2022-12-11T04:48:27;90.75;;;26.83;;
22679;SDS011;11507;44.858;10.374;2022-12-11T04:53:20;113.53;;;27.17;;
22679;SDS011;11507;44.858;10.374;2022-12-11T04:58:11;125.10;;;28.27;;
22679;SDS011;11507;44.858;10.374;2022-12-11T05:00:39;130.57;;;28.98;;
22679;SDS011;11507;44.858;10.374;2022-12-11T05:03:05;127.93;;;28.20;;
22679;SDS011;11507;44.858;10.374;2022-12-11T05:07:56;69.35;;;26.73;;
22679;SDS011;11507;44.858;10.374;2022-12-11T05:12:49;98.07;;;28.42;;
22679;SDS011;11507;44.858;10.374;2022-12-11T05:17:41;101.47;;;28.02;;
22679;SDS011;11507;44.858;10.374;2022-12-11T05:22:35;149.57;;;27.75;;
22679;SDS011;11507;44.858;10.374;2022-12-11T05:25:02;222.75;;;29.25;;
22679;SDS011;11507;44.858;10.374;2022-12-11T05:27:28;118.40;;;25.83;;
22679;SDS011;11507;44.858;10.374;2022-12-11T05:32:20;95.97;;;25.23;;
22679;SDS011;11507;44.858;10.374;2022-12-11T05:37:11;88.18;;;26.55;;
22679;SDS011;11507;44.858;10.374;2022-12-11T05:42:03;156.07;;;32.22;;
22679;SDS011;11507;44.858;10.374;2022-12-11T05:46:55;195.40;;;29.42;;
22679;SDS011;11507;44.858;10.374;2022-12-11T05:51:46;132.68;;;31.73;;
22679;SDS011;11507;44.858;10.374;2022-12-11T05:56:38;83.53;;;32.90;;
22679;SDS011;11507;44.858;10.374;2022-12-11T06:04:00;102.80;;;31.48;;
22679;SDS011;11507;44.858;10.374;2022-12-11T06:06:27;96.07;;;30.85;;
22679;SDS011;11507;44.858;10.374;2022-12-11T06:11:21;71.00;;;29.05;;
22679;SDS011;11507;44.858;10.374;2022-12-11T06:13:49;64.45;;;27.95;;
22679;SDS011;11507;44.858;10.374;2022-12-11T06:16:15;63.20;;;27.83;;
22679;SDS011;11507;44.858;10.374;2022-12-11T06:18:42;66.88;;;28.42;;
22679;SDS011;11507;44.858;10.374;2022-12-11T06:21:22;64.55;;;28.65;;
22679;SDS011;11507;44.858;10.374;2022-12-11T06:23:50;61.58;;;28.15;;
22679;SDS011;11507;44.858;10.374;2022-12-11T06:26:17;63.47;;;27.35;;
22679;SDS011;11507;44.858;10.374;2022-12-11T06:28:44;55.85;;;26.20;;
22679;SDS011;11507;44.858;10.374;2022-12-11T06:31:11;56.58;;;27.83;;
22679;SDS011;11507;44.858;10.374;2022-12-11T06:36:04;57.90;;;26.67;;
22679;SDS011;11507;44.858;10.374;2022-12-11T06:38:32;50.17;;;26.02;;
22679;SDS011;11507;44.858;10.374;2022-12-11T06:43:24;52.45;;;26.20;;
22679;SDS011;11507;44.858;10.374;2022-12-11T06:45:51;53.97;;;25.70;;
22679;SDS011;11507;44.858;10.374;2022-12-11T06:50:43;37.65;;;19.05;;
22679;SDS011;11507;44.858;10.374;2022-12-11T06:53:10;53.95;;;26.60;;
22679;SDS011;11507;44.858;10.374;2022-12-11T06:55:37;54.17;;;26.02;;
22679;SDS011;11507;44.858;10.374;2022-12-11T07:00:29;46.08;;;24.60;;
22679;SDS011;11507;44.858;10.374;2022-12-11T07:02:56;50.45;;;26.25;;
22679;SDS011;11507;44.858;10.374;2022-12-11T07:07:48;48.78;;;25.15;;
22679;SDS011;11507;44.858;10.374;2022-12-11T07:12:39;47.05;;;23.83;;
22679;SDS011;11507;44.858;10.374;2022-12-11T07:17:31;46.75;;;24.55;;
22679;SDS011;11507;44.858;10.374;2022-12-11T07:22:23;49.90;;;25.67;;
22679;SDS011;11507;44.858;10.374;2022-12-11T07:27:15;48.75;;;25.70;;
22679;SDS011;11507;44.858;10.374;2022-12-11T07:32:07;45.80;;;25.00;;
22679;SDS011;11507;44.858;10.374;2022-12-11T07:36:58;49.00;;;25.17;;
22679;SDS011;11507;44.858;10.374;2022-12-11T07:41:50;48.33;;;25.85;;
22679;SDS011;11507;44.858;10.374;2022-12-11T07:44:17;46.92;;;25.75;;
22679;SDS011;11507;44.858;10.374;2022-12-11T07:49:09;53.00;;;28.50;;
22679;SDS011;11507;44.858;10.374;2022-12-11T07:51:36;51.97;;;28.85;;
22679;SDS011;11507;44.858;10.374;2022-12-11T07:54:03;48.17;;;26.95;;
22679;SDS011;11507;44.858;10.374;2022-12-11T07:56:32;44.53;;;25.25;;
22679;SDS011;11507;44.858;10.374;2022-12-11T07:58:59;43.33;;;25.05;;
22679;SDS011;11507;44.858;10.374;2022-12-11T08:01:26;49.80;;;28.60;;
22679;SDS011;11507;44.858;10.374;2022-12-11T08:03:54;47.67;;;27.08;;
22679;SDS011;11507;44.858;10.374;2022-12-11T08:06:23;48.35;;;27.58;;
22679;SDS011;11507;44.858;10.374;2022-12-11T08:08:55;48.67;;;27.40;;
22679;SDS011;11507;44.858;10.374;2022-12-11T08:11:22;43.08;;;24.85;;
22679;SDS011;11507;44.858;10.374;2022-12-11T08:13:49;45.70;;;26.90;;
22679;SDS011;11507;44.858;10.374;2022-12-11T08:16:15;51.72;;;29.95;;
22679;SDS011;11507;44.858;10.374;2022-12-11T08:18:43;52.03;;;31.33;;
22679;SDS011;11507;44.858;10.374;2022-12-11T08:21:11;51.88;;;29.80;;
22679;SDS011;11507;44.858;10.374;2022-12-11T08:23:39;72.47;;;40.42;;
22679;SDS011;11507;44.858;10.374;2022-12-11T08:26:06;71.45;;;43.40;;
22679;SDS011;11507;44.858;10.374;2022-12-11T08:28:33;40.13;;;24.63;;
22679;SDS011;11507;44.858;10.374;2022-12-11T08:33:27;39.83;;;23.88;;
22679;SDS011;11507;44.858;10.374;2022-12-11T08:35:55;38.88;;;23.60;;
22679;SDS011;11507;44.858;10.374;2022-12-11T08:40:47;37.03;;;22.50;;
22679;SDS011;11507;44.858;10.374;2022-12-11T08:45:38;34.00;;;21.45;;
22679;SDS011;11507;44.858;10.374;2022-12-11T08:48:05;36.55;;;21.40;;
22679;SDS011;11507;44.858;10.374;2022-12-11T08:52:57;37.28;;;22.23;;
22679;SDS011;11507;44.858;10.374;2022-12-11T08:57:48;36.53;;;21.40;;
22679;SDS011;11507;44.858;10.374;2022-12-11T09:00:15;35.72;;;22.55;;
22679;SDS011;11507;44.858;10.374;2022-12-11T09:02:42;40.25;;;23.80;;
22679;SDS011;11507;44.858;10.374;2022-12-11T09:05:08;37.22;;;23.13;;
22679;SDS011;11507;44.858;10.374;2022-12-11T09:07:35;37.25;;;22.85;;
22679;SDS011;11507;44.858;10.374;2022-12-11T09:10:03;36.45;;;21.35;;
22679;SDS011;11507;44.858;10.374;2022-12-11T09:12:33;37.45;;;22.02;;
22679;SDS011;11507;44.858;10.374;2022-12-11T09:14:59;36.13;;;20.20;;
22679;SDS011;11507;44.858;10.374;2022-12-11T09:17:26;34.38;;;20.80;;
22679;SDS011;11507;44.858;10.374;2022-12-11T09:19:53;33.95;;;19.92;;
22679;SDS011;11507;44.858;10.374;2022-12-11T09:24:47;32.95;;;19.85;;
22679;SDS011;11507;44.858;10.374;2022-12-11T09:29:39;30.88;;;18.75;;
22679;SDS011;11507;44.858;10.374;2022-12-11T09:32:05;32.47;;;19.88;;
22679;SDS011;11507;44.858;10.374;2022-12-11T09:36:58;32.33;;;19.50;;
22679;SDS011;11507;44.858;10.374;2022-12-11T09:44:58;34.35;;;20.83;;
22679;SDS011;11507;44.858;10.374;2022-12-11T09:47:34;38.90;;;23.52;;
22679;SDS011;11507;44.858;10.374;2022-12-11T09:50:11;34.57;;;22.27;;
22679;SDS011;11507;44.858;10.374;2022-12-11T09:55:37;36.33;;;22.48;;
22679;SDS011;11507;44.858;10.374;2022-12-11T10:01:05;44.08;;;27.67;;
22679;SDS011;11507;44.858;10.374;2022-12-11T10:08:52;33.97;;;19.92;;
22679;SDS011;11507;44.858;10.374;2022-12-11T10:17:31;33.73;;;19.43;;
22679;SDS011;11507;44.858;10.374;2022-12-11T10:23:08;29.70;;;18.05;;
22679;SDS011;11507;44.858;10.374;2022-12-11T10:25:40;32.95;;;19.83;;
22679;SDS011;11507;44.858;10.374;2022-12-11T10:28:11;30.98;;;18.92;;
22679;SDS011;11507;44.858;10.374;2022-12-11T10:30:40;31.70;;;18.02;;
22679;SDS011;11507;44.858;10.374;2022-12-11T10:33:33;31.10;;;17.27;;
22679;SDS011;11507;44.858;10.374;2022-12-11T10:36:28;29.20;;;16.45;;
22679;SDS011;11507;44.858;10.374;2022-12-11T10:39:02;30.45;;;17.92;;
22679;SDS011;11507;44.858;10.374;2022-12-11T10:41:41;32.13;;;18.40;;
22679;SDS011;11507;44.858;10.374;2022-12-11T10:44:15;28.30;;;18.27;;
22679;SDS011;11507;44.858;10.374;2022-12-11T10:46:44;36.78;;;21.48;;
22679;SDS011;11507;44.858;10.374;2022-12-11T10:49:25;33.03;;;19.55;;
22679;SDS011;11507;44.858;10.374;2022-12-11T10:51:55;33.47;;;19.35;;
22679;SDS011;11507;44.858;10.374;2022-12-11T10:56:59;29.38;;;17.65;;
22679;SDS011;11507;44.858;10.374;2022-12-11T10:59:37;32.67;;;17.65;;
22679;SDS011;11507;44.858;10.374;2022-12-11T11:02:18;32.13;;;17.75;;
22679;SDS011;11507;44.858;10.374;2022-12-11T11:04:48;36.33;;;18.38;;
22679;SDS011;11507;44.858;10.374;2022-12-11T11:07:19;32.38;;;18.33;;
22679;SDS011;11507;44.858;10.374;2022-12-11T11:10:05;32.03;;;18.52;;
22679;SDS011;11507;44.858;10.374;2022-12-11T11:12:41;32.22;;;17.77;;
22679;SDS011;11507;44.858;10.374;2022-12-11T11:15:14;26.58;;;15.10;;
22679;SDS011;11507;44.858;10.374;2022-12-11T11:17:45;27.13;;;15.02;;
22679;SDS011;11507;44.858;10.374;2022-12-11T11:20:20;31.08;;;15.55;;
22679;SDS011;11507;44.858;10.374;2022-12-11T11:22:49;30.20;;;14.25;;
22679;SDS011;11507;44.858;10.374;2022-12-11T11:25:26;25.65;;;14.82;;
22679;SDS011;11507;44.858;10.374;2022-12-11T11:27:55;29.88;;;14.88;;
22679;SDS011;11507;44.858;10.374;2022-12-11T11:30:30;26.55;;;13.80;;
22679;SDS011;11507;44.858;10.374;2022-12-11T11:33:02;27.42;;;14.57;;
22679;SDS011;11507;44.858;10.374;2022-12-11T11:42:34;25.33;;;12.82;;
22679;SDS011;11507;44.858;10.374;2022-12-11T11:45:08;24.90;;;12.10;;
22679;SDS011;11507;44.858;10.374;2022-12-11T11:47:44;19.27;;;10.20;;
22679;SDS011;11507;44.858;10.374;2022-12-11T11:50:24;18.92;;;9.73;;
22679;SDS011;11507;44.858;10.374;2022-12-11T11:55:53;15.68;;;7.55;;
22679;SDS011;11507;44.858;10.374;2022-12-11T11:58:51;15.52;;;8.07;;
22679;SDS011;11507;44.858;10.374;2022-12-11T12:01:25;14.98;;;7.93;;
22679;SDS011;11507;44.858;10.374;2022-12-11T12:03:51;16.23;;;8.23;;
22679;SDS011;11507;44.858;10.374;2022-12-11T12:06:21;22.83;;;10.68;;
22679;SDS011;11507;44.858;10.374;2022-12-11T12:14:49;19.65;;;9.38;;
22679;SDS011;11507;44.858;10.374;2022-12-11T12:20:30;27.95;;;13.38;;
22679;SDS011;11507;44.858;10.374;2022-12-11T12:34:57;17.42;;;9.00;;
22679;SDS011;11507;44.858;10.374;2022-12-11T12:40:25;26.52;;;14.50;;
22679;SDS011;11507;44.858;10.374;2022-12-11T12:43:41;69.65;;;35.67;;
22679;SDS011;11507;44.858;10.374;2022-12-11T12:48:51;25.55;;;15.45;;
22679;SDS011;11507;44.858;10.374;2022-12-11T12:51:19;16.83;;;10.73;;
22679;SDS011;11507;44.858;10.374;2022-12-11T12:53:48;19.77;;;11.07;;
22679;SDS011;11507;44.858;10.374;2022-12-11T12:56:21;17.92;;;10.20;;
22679;SDS011;11507;44.858;10.374;2022-12-11T12:58:48;14.35;;;7.10;;
22679;SDS011;11507;44.858;10.374;2022-12-11T13:04:03;16.23;;;9.90;;
22679;SDS011;11507;44.858;10.374;2022-12-11T13:06:44;21.35;;;14.02;;
22679;SDS011;11507;44.858;10.374;2022-12-11T13:09:14;9.77;;;6.38;;
22679;SDS011;11507;44.858;10.374;2022-12-11T13:11:49;6.03;;;4.13;;
22679;SDS011;11507;44.858;10.374;2022-12-11T13:17:38;5.60;;;3.78;;
22679;SDS011;11507;44.858;10.374;2022-12-11T13:19:45;6.80;;;4.22;;
22679;SDS011;11507;44.858;10.374;2022-12-11T13:32:39;8.00;;;5.03;;
22679;SDS011;11507;44.858;10.374;2022-12-11T13:35:13;7.10;;;4.30;;
22679;SDS011;11507;44.858;10.374;2022-12-11T13:37:44;12.07;;;7.22;;
22679;SDS011;11507;44.858;10.374;2022-12-11T13:40:16;11.40;;;7.05;;
22679;SDS011;11507;44.858;10.374;2022-12-11T13:42:49;12.18;;;6.93;;
22679;SDS011;11507;44.858;10.374;2022-12-11T13:45:22;10.10;;;5.13;;
22679;SDS011;11507;44.858;10.374;2022-12-11T13:47:56;9.73;;;5.20;;
22679;SDS011;11507;44.858;10.374;2022-12-11T13:50:25;9.43;;;5.00;;
22679;SDS011;11507;44.858;10.374;2022-12-11T13:52:56;7.30;;;4.75;;
22679;SDS011;11507;44.858;10.374;2022-12-11T13:55:27;8.10;;;4.78;;
22679;SDS011;11507;44.858;10.374;2022-12-11T13:57:56;7.55;;;4.78;;
22679;SDS011;11507;44.858;10.374;2022-12-11T14:00:25;7.18;;;4.63;;
22679;SDS011;11507;44.858;10.374;2022-12-11T14:02:56;7.38;;;4.50;;
22679;SDS011;11507;44.858;10.374;2022-12-11T14:05:25;7.35;;;4.95;;
22679;SDS011;11507;44.858;10.374;2022-12-11T14:07:55;8.57;;;4.63;;
22679;SDS011;11507;44.858;10.374;2022-12-11T14:10:24;7.97;;;5.03;;
22679;SDS011;11507;44.858;10.374;2022-12-11T14:15:23;7.20;;;4.70;;
22679;SDS011;11507;44.858;10.374;2022-12-11T14:17:51;6.90;;;4.70;;
22679;SDS011;11507;44.858;10.374;2022-12-11T14:20:21;7.72;;;4.72;;
22679;SDS011;11507;44.858;10.374;2022-12-11T14:22:49;6.82;;;4.63;;
22679;SDS011;11507;44.858;10.374;2022-12-11T14:25:18;6.88;;;4.50;;
22679;SDS011;11507;44.858;10.374;2022-12-11T14:27:49;8.27;;;5.10;;
22679;SDS011;11507;44.858;10.374;2022-12-11T14:30:25;7.65;;;4.78;;
22679;SDS011;11507;44.858;10.374;2022-12-11T14:32:57;17.27;;;9.80;;
22679;SDS011;11507;44.858;10.374;2022-12-11T14:35:31;7.95;;;5.05;;
22679;SDS011;11507;44.858;10.374;2022-12-11T14:38:01;8.63;;;5.10;;
22679;SDS011;11507;44.858;10.374;2022-12-11T14:40:35;7.05;;;4.50;;
22679;SDS011;11507;44.858;10.374;2022-12-11T14:43:09;8.48;;;5.40;;
22679;SDS011;11507;44.858;10.374;2022-12-11T14:45:41;7.82;;;4.80;;
22679;SDS011;11507;44.858;10.374;2022-12-11T14:48:13;7.32;;;5.10;;
22679;SDS011;11507;44.858;10.374;2022-12-11T14:50:44;8.23;;;5.20;;
22679;SDS011;11507;44.858;10.374;2022-12-11T14:53:25;9.23;;;6.00;;
22679;SDS011;11507;44.858;10.374;2022-12-11T14:56:00;9.40;;;5.90;;
22679;SDS011;11507;44.858;10.374;2022-12-11T14:58:29;8.30;;;5.60;;
22679;SDS011;11507;44.858;10.374;2022-12-11T15:00:59;7.93;;;5.40;;
22679;SDS011;11507;44.858;10.374;2022-12-11T15:03:33;10.40;;;5.43;;
22679;SDS011;11507;44.858;10.374;2022-12-11T15:06:01;13.25;;;8.45;;
22679;SDS011;11507;44.858;10.374;2022-12-11T15:08:45;20.38;;;12.43;;
22679;SDS011;11507;44.858;10.374;2022-12-11T15:13:46;17.42;;;11.02;;
22679;SDS011;11507;44.858;10.374;2022-12-11T15:16:22;15.27;;;10.63;;
22679;SDS011;11507;44.858;10.374;2022-12-11T15:18:50;12.60;;;8.65;;
22679;SDS011;11507;44.858;10.374;2022-12-11T15:21:18;8.45;;;5.40;;
22679;SDS011;11507;44.858;10.374;2022-12-11T15:23:52;6.22;;;3.70;;
22679;SDS011;11507;44.858;10.374;2022-12-11T15:26:42;7.63;;;4.63;;
22679;SDS011;11507;44.858;10.374;2022-12-11T15:34:41;6.45;;;3.50;;
22679;SDS011;11507;44.858;10.374;2022-12-11T15:37:18;6.45;;;3.05;;
22679;SDS011;11507;44.858;10.374;2022-12-11T15:39:56;4.43;;;2.70;;
22679;SDS011;11507;44.858;10.374;2022-12-11T15:42:25;5.07;;;2.42;;
22679;SDS011;11507;44.858;10.374;2022-12-11T15:44:54;4.57;;;2.42;;
22679;SDS011;11507;44.858;10.374;2022-12-11T15:47:23;4.68;;;2.60;;
22679;SDS011;11507;44.858;10.374;2022-12-11T15:49:56;5.43;;;3.05;;
22679;SDS011;11507;44.858;10.374;2022-12-11T15:52:27;5.10;;;2.90;;
22679;SDS011;11507;44.858;10.374;2022-12-11T15:54:53;4.55;;;2.78;;
22679;SDS011;11507;44.858;10.374;2022-12-11T15:59:47;6.10;;;2.80;;
22679;SDS011;11507;44.858;10.374;2022-12-11T16:02:14;6.07;;;3.10;;
22679;SDS011;11507;44.858;10.374;2022-12-11T16:07:20;6.53;;;3.58;;
22679;SDS011;11507;44.858;10.374;2022-12-11T16:09:48;7.57;;;4.20;;
22679;SDS011;11507;44.858;10.374;2022-12-11T16:12:15;6.78;;;3.63;;
22679;SDS011;11507;44.858;10.374;2022-12-11T16:17:10;7.00;;;4.05;;
22679;SDS011;11507;44.858;10.374;2022-12-11T16:19:38;6.30;;;4.07;;
22679;SDS011;11507;44.858;10.374;2022-12-11T16:22:05;5.68;;;3.80;;
22679;SDS011;11507;44.858;10.374;2022-12-11T16:24:35;6.18;;;3.50;;
22679;SDS011;11507;44.858;10.374;2022-12-11T16:27:02;5.65;;;3.80;;
22679;SDS011;11507;44.858;10.374;2022-12-11T16:29:33;6.95;;;4.32;;
22679;SDS011;11507;44.858;10.374;2022-12-11T16:31:59;6.78;;;4.50;;
22679;SDS011;11507;44.858;10.374;2022-12-11T16:36:52;8.75;;;5.18;;
22679;SDS011;11507;44.858;10.374;2022-12-11T16:39:21;8.48;;;5.18;;
22679;SDS011;11507;44.858;10.374;2022-12-11T16:44:12;10.13;;;5.53;;
22679;SDS011;11507;44.858;10.374;2022-12-11T16:46:43;8.57;;;5.05;;
22679;SDS011;11507;44.858;10.374;2022-12-11T16:49:10;8.75;;;5.43;;
22679;SDS011;11507;44.858;10.374;2022-12-11T16:54:02;9.18;;;5.30;;
22679;SDS011;11507;44.858;10.374;2022-12-11T16:56:28;9.77;;;5.05;;
22679;SDS011;11507;44.858;10.374;2022-12-11T17:01:20;6.72;;;4.60;;
22679;SDS011;11507;44.858;10.374;2022-12-11T17:03:47;6.70;;;4.57;;
22679;SDS011;11507;44.858;10.374;2022-12-11T17:08:41;6.18;;;4.28;;
22679;SDS011;11507;44.858;10.374;2022-12-11T17:11:08;7.25;;;4.63;;
22679;SDS011;11507;44.858;10.374;2022-12-11T17:13:36;7.18;;;4.57;;
22679;SDS011;11507;44.858;10.374;2022-12-11T17:16:06;8.20;;;4.72;;
22679;SDS011;11507;44.858;10.374;2022-12-11T17:18:34;8.82;;;5.45;;
22679;SDS011;11507;44.858;10.374;2022-12-11T17:21:12;8.82;;;5.80;;
22679;SDS011;11507;44.858;10.374;2022-12-11T17:23:40;9.13;;;5.70;;
22679;SDS011;11507;44.858;10.374;2022-12-11T17:26:07;10.38;;;6.70;;
22679;SDS011;11507;44.858;10.374;2022-12-11T17:28:34;9.43;;;6.07;;
22679;SDS011;11507;44.858;10.374;2022-12-11T17:31:07;10.85;;;5.25;;
22679;SDS011;11507;44.858;10.374;2022-12-11T17:33:36;8.93;;;5.60;;
22679;SDS011;11507;44.858;10.374;2022-12-11T17:36:03;9.52;;;6.40;;
22679;SDS011;11507;44.858;10.374;2022-12-11T17:38:30;10.70;;;6.82;;
22679;SDS011;11507;44.858;10.374;2022-12-11T17:40:56;10.45;;;6.75;;
22679;SDS011;11507;44.858;10.374;2022-12-11T17:43:22;14.95;;;9.52;;
22679;SDS011;11507;44.858;10.374;2022-12-11T17:45:49;10.82;;;6.72;;
22679;SDS011;11507;44.858;10.374;2022-12-11T17:48:18;13.07;;;7.47;;
22679;SDS011;11507;44.858;10.374;2022-12-11T17:50:46;10.15;;;7.05;;
22679;SDS011;11507;44.858;10.374;2022-12-11T17:53:14;11.40;;;7.18;;
22679;SDS011;11507;44.858;10.374;2022-12-11T17:55:41;18.75;;;8.02;;
22679;SDS011;11507;44.858;10.374;2022-12-11T17:58:08;14.77;;;8.30;;
22679;SDS011;11507;44.858;10.374;2022-12-11T18:00:40;13.68;;;7.70;;
22679;SDS011;11507;44.858;10.374;2022-12-11T18:03:07;15.95;;;8.43;;
22679;SDS011;11507;44.858;10.374;2022-12-11T18:08:00;32.83;;;16.95;;
22679;SDS011;11507;44.858;10.374;2022-12-11T18:12:52;33.72;;;19.30;;
22679;SDS011;11507;44.858;10.374;2022-12-11T18:17:45;19.90;;;11.45;;
22679;SDS011;11507;44.858;10.374;2022-12-11T18:20:12;32.00;;;16.05;;
22679;SDS011;11507;44.858;10.374;2022-12-11T18:22:40;26.48;;;14.88;;
22679;SDS011;11507;44.858;10.374;2022-12-11T18:25:07;32.65;;;20.02;;
22679;SDS011;11507;44.858;10.374;2022-12-11T18:27:35;24.17;;;16.08;;
22679;SDS011;11507;44.858;10.374;2022-12-11T18:30:02;20.25;;;12.20;;
22679;SDS011;11507;44.858;10.374;2022-12-11T18:32:29;17.42;;;10.95;;
22679;SDS011;11507;44.858;10.374;2022-12-11T18:37:20;14.50;;;9.25;;
22679;SDS011;11507;44.858;10.374;2022-12-11T18:42:14;18.02;;;12.65;;
22679;SDS011;11507;44.858;10.374;2022-12-11T18:44:40;24.45;;;15.65;;
22679;SDS011;11507;44.858;10.374;2022-12-11T18:47:07;23.83;;;15.13;;
22679;SDS011;11507;44.858;10.374;2022-12-11T18:49:35;20.40;;;13.77;;
22679;SDS011;11507;44.858;10.374;2022-12-11T18:52:01;24.88;;;15.13;;
22679;SDS011;11507;44.858;10.374;2022-12-11T18:54:29;24.05;;;16.05;;
22679;SDS011;11507;44.858;10.374;2022-12-11T18:56:55;27.35;;;17.40;;
22679;SDS011;11507;44.858;10.374;2022-12-11T18:59:22;29.30;;;18.33;;
22679;SDS011;11507;44.858;10.374;2022-12-11T19:04:14;24.10;;;15.27;;
22679;SDS011;11507;44.858;10.374;2022-12-11T19:09:05;23.30;;;15.35;;
22679;SDS011;11507;44.858;10.374;2022-12-11T19:11:33;22.70;;;14.65;;